createdAt,value
2022-08-03T00:01:44.659Z,97011.25
2022-08-03T00:04:11.732Z,96997.84
2022-08-03T00:06:38.770Z,96995.59
2022-08-03T00:09:06.412Z,97008.56
2022-08-03T00:11:34.269Z,97013.25
2022-08-03T00:14:01.633Z,97002.66
2022-08-03T00:16:28.901Z,96994.44
2022-08-03T00:18:55.871Z,97004.91
2022-08-03T00:21:23.075Z,97006.59
2022-08-03T00:23:52.420Z,97013.88
2022-08-03T00:26:22.810Z,97007.25
2022-08-03T00:28:50.562Z,96996.84
2022-08-03T00:31:24.898Z,97003.50
2022-08-03T00:34:04.762Z,97008.84
2022-08-03T00:36:33.117Z,97003.81
2022-08-03T00:39:00.101Z,97008.16
2022-08-03T00:41:27.439Z,97013.50
2022-08-03T00:43:54.572Z,97007.47
2022-08-03T00:46:22.557Z,97007.97
2022-08-03T00:48:50.940Z,97017.59
2022-08-03T00:51:19.102Z,97013.19
2022-08-03T00:53:46.218Z,97006.69
2022-08-03T00:56:15.184Z,97010.44
2022-08-03T00:58:44.861Z,97022.25
2022-08-03T01:01:12.762Z,97020.88
2022-08-03T01:03:40.877Z,97013.63
2022-08-03T01:06:19.274Z,97016.41
2022-08-03T01:09:01.295Z,97019.47
2022-08-03T01:12:00.755Z,97009.88
2022-08-03T01:14:42.229Z,97005.66
2022-08-03T01:17:23.816Z,97000.09
2022-08-03T01:19:56.398Z,97010.94
2022-08-03T01:22:29.659Z,97005.91
2022-08-03T01:25:10.284Z,97017.78
2022-08-03T01:27:58.078Z,97014.31
2022-08-03T01:30:30.165Z,97009.91
2022-08-03T01:33:12.753Z,97009.66
2022-08-03T01:35:45.560Z,97012.19
2022-08-03T01:38:18.160Z,97007.28
2022-08-03T01:40:47.924Z,97010.53
2022-08-03T01:44:28.447Z,96970.59
2022-08-03T01:46:08.916Z,97008.69
2022-08-03T01:48:42.241Z,97003.91
2022-08-03T01:51:10.454Z,97013.84
2022-08-03T01:53:40.215Z,97012.09
2022-08-03T01:56:07.947Z,97012.78
2022-08-03T01:58:37.341Z,97012.78
2022-08-03T02:01:06.045Z,97014.81
2022-08-03T02:03:38.462Z,97011.22
2022-08-03T02:06:59.885Z,96996.72
2022-08-03T02:09:17.393Z,97002.22
2022-08-03T02:11:47.123Z,97004.19
2022-08-03T02:14:15.433Z,97008.38
2022-08-03T02:16:44.871Z,97008.03
2022-08-03T02:19:12.556Z,97016.41
2022-08-03T02:21:56.286Z,97013.41
2022-08-03T02:24:27.506Z,97023.66
2022-08-03T02:26:56.384Z,97020.34
2022-08-03T02:29:39.368Z,97021.22
2022-08-03T02:32:13.340Z,97020.44
2022-08-03T02:34:45.291Z,96973.72
2022-08-03T02:37:15.011Z,97012.56
2022-08-03T02:39:44.058Z,97005.91
2022-08-03T02:42:14.579Z,97015.22
2022-08-03T02:44:47.858Z,97013.84
2022-08-03T02:47:15.859Z,97004.84
2022-08-03T02:49:51.492Z,97015.66
2022-08-03T02:52:24.351Z,97010.22
2022-08-03T02:54:56.384Z,97010.44
2022-08-03T02:57:25.710Z,97020.72
2022-08-03T02:59:54.291Z,97013.72
2022-08-03T03:02:22.388Z,97020.22
2022-08-03T03:05:50.732Z,97019.06
2022-08-03T03:07:53.207Z,97028.66
2022-08-03T03:10:26.125Z,97030.53
2022-08-03T03:12:56.741Z,97035.72
2022-08-03T03:15:25.883Z,97038.94
2022-08-03T03:17:53.801Z,97032.78
2022-08-03T03:20:29.439Z,97044.81
2022-08-03T03:23:00.333Z,97042.53
2022-08-03T03:25:30.700Z,97043.22
2022-08-03T03:28:02.489Z,97043.69
2022-08-03T03:30:30.173Z,97042.94
2022-08-03T03:32:58.875Z,97050.59
2022-08-03T03:35:27.866Z,97043.53
2022-08-03T03:37:54.978Z,97052.56
2022-08-03T03:40:22.718Z,97049.50
2022-08-03T03:42:50.905Z,97047.94
2022-08-03T03:45:18.759Z,97054.19
2022-08-03T03:47:45.789Z,97054.75
2022-08-03T03:50:13.127Z,97068.94
2022-08-03T03:52:40.168Z,97062.03
2022-08-03T03:55:07.609Z,97069.97
2022-08-03T03:57:35.125Z,97047.22
2022-08-03T04:00:02.371Z,97060.94
2022-08-03T04:02:31.691Z,97065.53
2022-08-03T04:05:16.826Z,97065.41
2022-08-03T04:08:47.233Z,97062.78
2022-08-03T04:11:29.489Z,97064.53
2022-08-03T04:14:03.820Z,97064.16
2022-08-03T04:16:35.433Z,97068.78
2022-08-03T04:19:07.051Z,97071.81
2022-08-03T04:21:38.095Z,97075.41
2022-08-03T04:24:09.187Z,97068.78
2022-08-03T04:26:39.650Z,97075.78
2022-08-03T04:29:08.017Z,97072.03
2022-08-03T04:31:36.460Z,97063.53
2022-08-03T04:34:04.287Z,97071.34
2022-08-03T04:36:33.939Z,97063.41
2022-08-03T04:39:01.042Z,97065.75
2022-08-03T04:41:30.492Z,97067.63
2022-08-03T04:43:59.340Z,97064.69
2022-08-03T04:46:29.520Z,97067.09
2022-08-03T04:48:57.232Z,97078.34
2022-08-03T04:51:25.349Z,97080.25
2022-08-03T04:53:52.508Z,97082.75
2022-08-03T04:56:20.153Z,97083.72
2022-08-03T04:58:48.742Z,97086.38
2022-08-03T05:01:17.227Z,97090.38
2022-08-03T05:03:44.277Z,97091.38
2022-08-03T05:06:11.761Z,97083.94
2022-08-03T05:08:46.182Z,97094.94
2022-08-03T05:11:15.869Z,97097.03
2022-08-03T05:13:45.908Z,97095.09
2022-08-03T05:16:14.064Z,97088.88
2022-08-03T05:18:48.641Z,97087.66
2022-08-03T05:21:41.749Z,97094.66
2022-08-03T05:24:19.854Z,97077.56
2022-08-03T05:26:46.821Z,97094.69
2022-08-03T05:29:16.129Z,97096.53
2022-08-03T05:31:44.373Z,97091.91
2022-08-03T05:34:11.487Z,97107.97
2022-08-03T05:36:38.857Z,97109.44
2022-08-03T05:39:07.462Z,97110.34
2022-08-03T05:41:46.508Z,97111.09
2022-08-03T05:44:13.593Z,97110.13
2022-08-03T05:46:42.162Z,97087.19
2022-08-03T05:49:10.216Z,97121.56
2022-08-03T05:51:37.817Z,97111.09
2022-08-03T05:54:05.083Z,97121.97
2022-08-03T05:56:32.438Z,97126.53
2022-08-03T05:59:22.464Z,97129.19
2022-08-03T06:01:55.167Z,97135.94
2022-08-03T06:04:22.825Z,97125.56
2022-08-03T06:06:50.905Z,97145.31
2022-08-03T06:09:18.106Z,97144.94
2022-08-03T06:11:45.118Z,97150.59
2022-08-03T06:14:13.136Z,97133.59
2022-08-03T06:16:40.123Z,97133.75
2022-08-03T06:19:07.404Z,97137.81
2022-08-03T06:21:34.694Z,97134.31
2022-08-03T06:24:02.547Z,97140.72
2022-08-03T06:26:29.661Z,97145.06
2022-08-03T06:28:57.188Z,97140.81
2022-08-03T06:31:32.885Z,97136.50
2022-08-03T06:34:33.566Z,97142.53
2022-08-03T06:36:53.232Z,97140.97
2022-08-03T06:39:23.500Z,97121.47
2022-08-03T06:41:51.592Z,97144.63
2022-08-03T06:44:18.560Z,97138.84
2022-08-03T06:46:48.551Z,97147.25
2022-08-03T06:49:15.712Z,97136.16
2022-08-03T06:52:05.134Z,97155.00
2022-08-03T06:54:33.264Z,97142.66
2022-08-03T06:57:03.250Z,97150.38
2022-08-03T07:00:09.093Z,97134.09
2022-08-03T07:02:19.897Z,97131.69
2022-08-03T07:04:48.603Z,97149.06
2022-08-03T07:07:15.760Z,97134.75
2022-08-03T07:09:42.735Z,97149.50
2022-08-03T07:12:25.046Z,97154.97
2022-08-03T07:14:53.793Z,97154.81
2022-08-03T07:17:23.721Z,97138.94
2022-08-03T07:19:50.741Z,97146.81
2022-08-03T07:22:18.229Z,97145.34
2022-08-03T07:24:46.907Z,97152.34
2022-08-03T07:27:13.932Z,97153.06
2022-08-03T07:29:41.129Z,97156.88
2022-08-03T07:32:50.241Z,97153.72
2022-08-03T07:35:25.069Z,97153.66
2022-08-03T07:37:54.464Z,97148.91
2022-08-03T07:40:22.944Z,97146.59
2022-08-03T07:42:52.184Z,97145.25
2022-08-03T07:45:23.652Z,97155.06
2022-08-03T07:47:53.401Z,97156.75
2022-08-03T07:50:21.502Z,97156.69
2022-08-03T07:52:49.676Z,97155.47
2022-08-03T07:55:20.811Z,97152.72
2022-08-03T07:57:58.993Z,97162.88
2022-08-03T08:00:25.932Z,97153.78
2022-08-03T08:02:52.903Z,97158.63
2022-08-03T08:05:20.057Z,97143.72
2022-08-03T08:07:50.721Z,97156.25
2022-08-03T08:10:22.043Z,97154.84
2022-08-03T08:12:51.051Z,97156.16
2022-08-03T08:15:18.165Z,97155.09
2022-08-03T08:17:47.695Z,97154.44
2022-08-03T08:20:27.786Z,97151.38
2022-08-03T08:22:58.243Z,97158.59
2022-08-03T08:25:28.401Z,97153.69
2022-08-03T08:28:30.319Z,97145.34
2022-08-03T08:30:44.755Z,97141.97
2022-08-03T08:33:22.357Z,97137.84
2022-08-03T08:35:53.195Z,97134.41
2022-08-03T08:38:20.682Z,97135.13
2022-08-03T08:40:49.106Z,97145.13
2022-08-03T08:43:16.273Z,97132.50
2022-08-03T08:45:44.720Z,97130.91
2022-08-03T08:48:13.953Z,97126.59
2022-08-03T08:50:41.543Z,97126.34
2022-08-03T08:53:18.281Z,97132.09
2022-08-03T08:55:59.040Z,97130.38
2022-08-03T08:58:30.526Z,97126.66
2022-08-03T09:00:57.619Z,97127.06
2022-08-03T09:03:29.733Z,97127.31
2022-08-03T09:06:02.508Z,97126.09
2022-08-03T09:08:35.135Z,97116.91
2022-08-03T09:11:02.220Z,97124.44
2022-08-03T09:13:30.536Z,97115.88
2022-08-03T09:16:17.429Z,97121.44
2022-08-03T09:18:47.898Z,97119.25
2022-08-03T09:21:33.563Z,97120.34
2022-08-03T09:24:05.203Z,97116.88
2022-08-03T09:26:37.568Z,97119.19
2022-08-03T09:29:14.862Z,97120.84
2022-08-03T09:31:47.290Z,97127.03
2022-08-03T09:34:17.305Z,97094.19
2022-08-03T09:36:46.023Z,97124.81
2022-08-03T09:39:40.823Z,97119.50
2022-08-03T09:42:14.865Z,97118.28
2022-08-03T09:44:45.148Z,97107.50
2022-08-03T09:47:14.413Z,97108.50
2022-08-03T09:49:56.569Z,97117.09
2022-08-03T09:52:37.929Z,97103.81
2022-08-03T09:55:23.836Z,97113.38
2022-08-03T09:58:08.465Z,97118.03
2022-08-03T10:00:52.972Z,97107.91
2022-08-03T10:03:20.115Z,97110.31
2022-08-03T10:05:47.089Z,97109.19
2022-08-03T10:08:19.105Z,97108.03
2022-08-03T10:10:49.657Z,97101.47
2022-08-03T10:13:19.687Z,97102.31
2022-08-03T10:16:22.878Z,97086.41
2022-08-03T10:18:34.103Z,97082.81
2022-08-03T10:21:12.215Z,97077.34
2022-08-03T10:23:41.478Z,97079.25
2022-08-03T10:26:13.259Z,97071.88
2022-08-03T10:28:46.685Z,97072.09
2022-08-03T10:31:14.610Z,97076.28
2022-08-03T10:33:51.389Z,97080.97
2022-08-03T10:36:23.884Z,97075.41
2022-08-03T10:38:56.614Z,97077.91
2022-08-03T10:41:29.903Z,97071.44
2022-08-03T10:44:03.091Z,97071.91
2022-08-03T10:46:30.110Z,97078.69
2022-08-03T10:48:58.563Z,97056.28
2022-08-03T10:51:30.666Z,97059.13
2022-08-03T10:54:01.726Z,97070.59
2022-08-03T10:56:53.477Z,97072.88
2022-08-03T10:59:46.505Z,97069.22
2022-08-03T11:02:14.800Z,97071.88
2022-08-03T11:04:42.936Z,97056.44
2022-08-03T11:07:23.511Z,97061.03
2022-08-03T11:09:52.683Z,97063.41
2022-08-03T11:12:32.191Z,97051.03
2022-08-03T11:15:05.117Z,97042.84
2022-08-03T11:17:46.679Z,97057.59
2022-08-03T11:20:44.849Z,97048.72
2022-08-03T11:23:12.388Z,97033.13
2022-08-03T11:26:16.052Z,97046.75
2022-08-03T11:28:46.027Z,97046.75
2022-08-03T11:31:49.848Z,97036.50
2022-08-03T11:34:14.730Z,97028.13
2022-08-03T11:37:28.516Z,97028.03
2022-08-03T11:39:59.893Z,97020.88
2022-08-03T11:42:27.802Z,97039.56
2022-08-03T11:44:59.400Z,97030.78
2022-08-03T11:47:28.387Z,97012.94
2022-08-03T11:50:02.144Z,97026.72
2022-08-03T11:52:39.368Z,97023.09
2022-08-03T11:55:11.321Z,97020.94
2022-08-03T11:59:16.400Z,97022.84
2022-08-03T12:00:30.933Z,96997.72
2022-08-03T12:02:58.935Z,97025.06
2022-08-03T12:05:51.541Z,97010.25
2022-08-03T12:08:31.260Z,97007.31
2022-08-03T12:11:00.607Z,97011.38
2022-08-03T12:14:44.470Z,97007.44
2022-08-03T12:16:26.221Z,97010.25
2022-08-03T12:18:58.980Z,97012.47
2022-08-03T12:21:26.020Z,97003.59
2022-08-03T12:23:59.112Z,97007.53
2022-08-03T12:26:27.292Z,96998.78
2022-08-03T12:28:54.495Z,96996.53
2022-08-03T12:31:21.744Z,97008.47
2022-08-03T12:34:15.352Z,97001.06
2022-08-03T12:36:59.540Z,96990.78
2022-08-03T12:39:31.065Z,96990.97
2022-08-03T12:41:59.134Z,96974.88
2022-08-03T12:44:34.869Z,96979.06
2022-08-03T12:47:03.706Z,96985.16
2022-08-03T12:49:45.870Z,96992.34
2022-08-03T12:52:12.809Z,96980.94
2022-08-03T12:54:39.859Z,96985.06
2022-08-03T12:57:09.935Z,96984.97
2022-08-03T12:59:53.407Z,96979.41
2022-08-03T13:02:24.062Z,96973.91
2022-08-03T13:04:53.991Z,96966.78
2022-08-03T13:07:22.670Z,96959.25
2022-08-03T13:09:56.422Z,96974.19
2022-08-03T13:12:24.216Z,96963.78
2022-08-03T13:14:59.203Z,96963.50
2022-08-03T13:17:28.407Z,96962.56
2022-08-03T13:19:56.529Z,96968.69
2022-08-03T13:22:33.140Z,96965.81
2022-08-03T13:25:01.373Z,96960.03
2022-08-03T13:28:04.353Z,96962.56
2022-08-03T13:30:29.842Z,96967.31
2022-08-03T13:32:58.991Z,96962.44
2022-08-03T13:35:26.214Z,96957.75
2022-08-03T13:37:53.516Z,96967.25
2022-08-03T13:40:23.658Z,96958.09
2022-08-03T14:46:45.950Z,96937.94
2022-08-03T14:50:32.631Z,96938.75
2022-08-03T14:51:59.988Z,96941.53
2022-08-03T14:54:26.959Z,96943.41
2022-08-03T14:56:54.093Z,96934.09
2022-08-03T14:59:21.423Z,96943.47
2022-08-03T15:02:02.999Z,96937.97
2022-08-03T15:04:31.988Z,96934.69
2022-08-03T15:06:58.878Z,96927.63
2022-08-03T15:09:25.963Z,96911.94
2022-08-03T15:11:53.113Z,96924.53
2022-08-03T15:14:20.213Z,96908.78
2022-08-03T15:16:55.328Z,96919.31
2022-08-03T15:20:02.354Z,96910.19
2022-08-03T15:22:09.453Z,96910.44
2022-08-03T15:24:36.452Z,96902.88
2022-08-03T15:27:06.226Z,96922.38
2022-08-03T15:30:08.809Z,96928.22
2022-08-03T15:32:22.732Z,96918.38
2022-08-03T15:34:49.909Z,96922.59
2022-08-03T15:37:19.201Z,96925.69
2022-08-03T15:39:59.805Z,96922.53
2022-08-03T15:42:29.774Z,96916.41
2022-08-03T15:44:59.265Z,96923.44
2022-08-03T15:47:29.465Z,96919.66
2022-08-03T15:49:56.529Z,96914.25
2022-08-03T15:52:24.031Z,96920.72
2022-08-03T15:54:51.094Z,96927.25
2022-08-03T15:57:18.283Z,96918.84
2022-08-03T15:59:45.943Z,96910.88
2022-08-03T16:02:13.171Z,96923.19
2022-08-03T16:04:40.121Z,96927.75
2022-08-03T16:07:07.187Z,96923.56
2022-08-03T16:09:42.246Z,96916.72
2022-08-03T16:12:15.658Z,96928.66
2022-08-03T16:14:52.446Z,96930.75
2022-08-03T16:17:21.235Z,96939.69
2022-08-03T16:19:48.756Z,96920.78
2022-08-03T16:22:18.249Z,96947.91
2022-08-03T16:24:46.943Z,96949.41
2022-08-03T16:27:17.490Z,96941.50
2022-08-03T16:30:02.245Z,96945.09
2022-08-03T16:32:30.538Z,96942.13
2022-08-03T16:34:57.623Z,96943.41
2022-08-03T16:37:39.975Z,96957.31
2022-08-03T16:40:17.658Z,96954.38
2022-08-03T16:42:46.948Z,96952.53
2022-08-03T16:45:14.083Z,96948.59
2022-08-03T16:47:41.128Z,96950.88
2022-08-03T16:50:15.466Z,96946.22
2022-08-03T16:52:47.273Z,96957.72
2022-08-03T16:55:42.769Z,96957.72
2022-08-03T16:58:03.941Z,96962.00
2022-08-03T17:00:41.240Z,96967.34
2022-08-03T17:03:16.378Z,96965.72
2022-08-03T17:05:49.943Z,96967.94
2022-08-03T17:08:26.115Z,96968.38
2022-08-03T17:10:55.057Z,96964.69
2022-08-03T17:13:22.986Z,96973.16
2022-08-03T17:16:08.041Z,96978.00
2022-08-03T17:18:38.215Z,96976.81
2022-08-03T17:21:10.583Z,96981.31
2022-08-03T17:23:58.047Z,96977.38
2022-08-03T17:26:30.377Z,96982.25
2022-08-03T17:29:12.610Z,96983.81
2022-08-03T17:31:48.964Z,96989.06
2022-08-03T17:34:17.840Z,96977.13
2022-08-03T17:37:04.147Z,96988.47
2022-08-03T17:39:57.274Z,96992.38
2022-08-03T17:42:38.848Z,96993.88
2022-08-03T17:45:07.294Z,96989.34
2022-08-03T17:47:42.342Z,96986.53
2022-08-03T17:50:24.780Z,96987.75
2022-08-03T17:53:07.780Z,96993.84
2022-08-03T17:55:55.443Z,96998.50
2022-08-03T17:58:38.532Z,96990.88
2022-08-03T18:01:57.406Z,96998.78
2022-08-03T18:04:29.863Z,97006.97
2022-08-03T18:07:00.201Z,97008.63
2022-08-03T18:10:03.975Z,97015.97
2022-08-03T18:12:59.599Z,97015.25
2022-08-03T18:15:40.502Z,97011.19
2022-08-03T18:18:10.758Z,97014.56
2022-08-03T18:20:41.957Z,97023.06
2022-08-03T18:23:24.625Z,97030.56
2022-08-03T18:26:07.671Z,97030.44
2022-08-03T18:28:39.738Z,97032.00
2022-08-03T18:31:11.571Z,97031.25
2022-08-03T18:34:16.977Z,97033.81
2022-08-03T18:36:30.289Z,97035.47
2022-08-03T18:38:59.901Z,97041.63
2022-08-03T18:41:34.724Z,97035.97
2022-08-03T18:44:06.583Z,97041.63
2022-08-03T18:46:41.052Z,97044.06
2022-08-03T18:49:17.016Z,97052.09
2022-08-03T18:51:47.230Z,97031.66
2022-08-03T18:54:51.798Z,97048.28
2022-08-03T18:57:22.392Z,97060.41
2022-08-03T19:00:10.449Z,97051.75
2022-08-03T19:02:42.154Z,97056.25
2022-08-03T19:05:20.396Z,97068.72
2022-08-03T19:08:03.017Z,97064.22
2022-08-03T19:10:36.909Z,97065.56
2022-08-03T19:13:14.372Z,97068.06
2022-08-03T19:15:51.220Z,97061.69
2022-08-03T19:18:22.080Z,97070.50
2022-08-03T19:20:54.719Z,97070.84
2022-08-03T19:23:34.079Z,97071.16
2022-08-03T19:29:01.328Z,97066.06
2022-08-03T19:31:59.365Z,97050.78
2022-08-03T19:34:33.294Z,97075.22
2022-08-03T19:37:11.412Z,97072.06
2022-08-03T19:39:43.384Z,97058.59
2022-08-03T19:42:20.078Z,97069.72
2022-08-03T19:45:17.064Z,97078.19
2022-08-03T19:47:48.238Z,97079.38
2022-08-03T19:50:16.442Z,97078.50
2022-08-03T19:52:50.228Z,97091.09
2022-08-03T19:55:20.089Z,97086.19
2022-08-03T19:57:49.345Z,97087.50
2022-08-03T20:00:26.603Z,97086.19
2022-08-03T20:02:54.026Z,97094.47
2022-08-03T20:05:23.969Z,97080.47
2022-08-03T20:07:54.072Z,97084.41
2022-08-03T20:10:21.732Z,97070.59
2022-08-03T20:12:50.648Z,97098.44
2022-08-03T20:15:31.047Z,97086.03
2022-08-03T20:17:59.358Z,97110.56
2022-08-03T20:20:34.729Z,97107.16
2022-08-03T20:23:08.836Z,97107.63
2022-08-03T20:25:56.974Z,97133.84
2022-08-03T20:28:32.432Z,97125.31
2022-08-03T20:31:00.224Z,97124.13
2022-08-03T20:33:46.428Z,97126.25
2022-08-03T20:36:18.985Z,97119.97
2022-08-03T20:38:48.532Z,97122.25
2022-08-03T20:41:17.100Z,97125.53
2022-08-03T20:43:44.911Z,97121.56
2022-08-03T20:46:31.356Z,97128.81
2022-08-03T20:49:04.057Z,97132.41
2022-08-03T20:51:50.550Z,97125.75
2022-08-03T20:54:22.668Z,97126.78
2022-08-03T20:57:00.532Z,97134.69
2022-08-03T20:59:50.240Z,97124.78
2022-08-03T21:02:29.814Z,97131.34
2022-08-03T21:05:08.105Z,97121.59
2022-08-03T21:08:04.479Z,97134.94
2022-08-03T21:10:30.866Z,97129.88
2022-08-03T21:13:02.202Z,97047.13
2022-08-03T21:13:18.157Z,97129.81
2022-08-03T21:16:12.361Z,97141.97
2022-08-03T21:18:46.103Z,97141.88
2022-08-03T21:21:16.182Z,97150.00
2022-08-03T21:23:48.619Z,97144.47
2022-08-03T21:26:22.785Z,97150.78
2022-08-03T21:28:52.348Z,97149.94
2022-08-03T21:31:24.501Z,97156.44
2022-08-03T21:34:11.094Z,97152.06
2022-08-03T21:36:38.176Z,97162.34
2022-08-03T21:39:09.125Z,97179.84
2022-08-03T21:41:38.593Z,97155.13
2022-08-03T21:44:06.476Z,97166.50
2022-08-03T21:46:36.733Z,97171.47
2022-08-03T21:50:05.609Z,97171.75
2022-08-03T21:51:59.578Z,97171.09
2022-08-03T21:54:36.209Z,97166.47
2022-08-03T21:57:28.250Z,97162.88
2022-08-03T22:00:03.930Z,97156.78
2022-08-03T22:02:43.009Z,97174.56
2022-08-03T22:05:10.222Z,97168.16
2022-08-03T22:07:44.479Z,97169.56
2022-08-03T22:10:13.010Z,97144.53
2022-08-03T22:12:41.088Z,97156.75
2022-08-03T22:15:11.253Z,97164.59
2022-08-03T22:17:55.571Z,97159.91
2022-08-03T22:20:24.632Z,97166.56
2022-08-03T22:22:55.816Z,97176.75
2022-08-03T22:25:32.356Z,97173.84
2022-08-03T22:28:02.460Z,97166.97
2022-08-03T22:30:29.722Z,97168.00
2022-08-03T22:32:57.939Z,97162.78
2022-08-03T22:35:26.813Z,97159.41
2022-08-03T22:37:57.431Z,97152.81
2022-08-03T22:40:26.018Z,97163.56
2022-08-03T22:42:54.656Z,97165.88
2022-08-03T22:46:06.295Z,97168.94
2022-08-03T22:48:08.875Z,97165.34
2022-08-03T22:50:36.080Z,97166.31
2022-08-03T22:53:03.508Z,97174.56
2022-08-03T22:55:31.533Z,97167.13
2022-08-03T22:57:58.581Z,97161.69
2022-08-03T23:00:25.802Z,97166.44
2022-08-03T23:02:56.520Z,97173.09
2022-08-03T23:06:01.692Z,97169.75
2022-08-03T23:08:15.473Z,97161.44
2022-08-03T23:10:47.234Z,97158.78
2022-08-03T23:13:17.316Z,97156.31
2022-08-03T23:15:55.161Z,97158.88
2022-08-03T23:18:23.644Z,97168.31
2022-08-03T23:20:53.447Z,97169.72
2022-08-03T23:23:20.908Z,97162.53
2022-08-03T23:25:51.114Z,97163.84
2022-08-03T23:28:19.457Z,97165.00
2022-08-03T23:30:46.819Z,97169.13
2022-08-03T23:33:16.493Z,97164.84
2022-08-03T23:36:28.180Z,97147.41
2022-08-03T23:38:49.412Z,97163.66
2022-08-03T23:41:18.845Z,97172.53
2022-08-03T23:43:52.397Z,97158.94
2022-08-03T23:46:22.743Z,97162.31
2022-08-03T23:48:50.937Z,97160.13
2022-08-03T23:51:35.720Z,97158.09
2022-08-03T23:54:11.947Z,97159.31
2022-08-03T23:57:08.775Z,97169.19
2022-08-03T23:59:59.712Z,97166.56
